sensor_id;sensor_type;location;lat;lon;timestamp;pressure;altitude;pressure_sealevel;temperature;humidity
68137;BME280;54939;50.826;9.030;2023-02-13T00:00:23;100829.16;;;6.51;71.35
68137;BME280;54939;50.826;9.030;2023-02-13T00:00:54;100831.91;;;6.50;71.06
68137;BME280;54939;50.826;9.030;2023-02-13T00:01:24;100828.28;;;6.51;71.24
68137;BME280;54939;50.826;9.030;2023-02-13T00:01:54;100832.72;;;6.50;71.17
68137;BME280;54939;50.826;9.030;2023-02-13T00:02:24;100824.78;;;6.50;71.12
68137;BME280;54939;50.826;9.030;2023-02-13T00:02:55;100832.72;;;6.50;71.32
68137;BME280;54939;50.826;9.030;2023-02-13T00:03:25;100833.53;;;6.52;71.48
68137;BME280;54939;50.826;9.030;2023-02-13T00:03:55;100831.78;;;6.51;71.44
68137;BME280;54939;50.826;9.030;2023-02-13T00:04:25;100824.69;;;6.52;71.19
68137;BME280;54939;50.826;9.030;2023-02-13T00:04:55;100827.34;;;6.52;71.56
68137;BME280;54939;50.826;9.030;2023-02-13T00:05:25;100830.88;;;6.52;71.36
68137;BME280;54939;50.826;9.030;2023-02-13T00:05:56;100826.50;;;6.51;71.40
68137;BME280;54939;50.826;9.030;2023-02-13T00:06:26;100826.50;;;6.51;71.29
68137;BME280;54939;50.826;9.030;2023-02-13T00:06:56;100830.00;;;6.52;71.51
68137;BME280;54939;50.826;9.030;2023-02-13T00:07:26;100830.00;;;6.52;71.52
68137;BME280;54939;50.826;9.030;2023-02-13T00:07:56;100826.50;;;6.51;71.19
68137;BME280;54939;50.826;9.030;2023-02-13T00:08:26;100830.00;;;6.52;71.14
68137;BME280;54939;50.826;9.030;2023-02-13T00:08:57;100829.16;;;6.51;71.01
68137;BME280;54939;50.826;9.030;2023-02-13T00:09:27;100824.69;;;6.52;70.99
68137;BME280;54939;50.826;9.030;2023-02-13T00:09:57;100828.22;;;6.52;71.26
68137;BME280;54939;50.826;9.030;2023-02-13T00:10:27;100830.00;;;6.52;71.20
68137;BME280;54939;50.826;9.030;2023-02-13T00:10:57;100826.50;;;6.51;71.22
68137;BME280;54939;50.826;9.030;2023-02-13T00:11:28;100821.19;;;6.51;71.28
68137;BME280;54939;50.826;9.030;2023-02-13T00:11:58;100822.03;;;6.52;71.22
68137;BME280;54939;50.826;9.030;2023-02-13T00:12:28;100818.53;;;6.51;71.16
68137;BME280;54939;50.826;9.030;2023-02-13T00:12:58;100818.53;;;6.51;71.26
68137;BME280;54939;50.826;9.030;2023-02-13T00:13:28;100819.38;;;6.52;71.43
68137;BME280;54939;50.826;9.030;2023-02-13T00:13:59;100814.94;;;6.52;71.16
68137;BME280;54939;50.826;9.030;2023-02-13T00:14:29;100815.88;;;6.51;71.32
68137;BME280;54939;50.826;9.030;2023-02-13T00:14:59;100818.47;;;6.53;71.13
68137;BME280;54939;50.826;9.030;2023-02-13T00:15:29;100821.13;;;6.53;71.48
68137;BME280;54939;50.826;9.030;2023-02-13T00:16:01;100814.00;;;6.53;71.23
68137;BME280;54939;50.826;9.030;2023-02-13T00:16:32;100815.81;;;6.53;71.30
68137;BME280;54939;50.826;9.030;2023-02-13T00:17:02;100821.13;;;6.53;71.36
68137;BME280;54939;50.826;9.030;2023-02-13T00:17:33;100818.38;;;6.54;71.41
68137;BME280;54939;50.826;9.030;2023-02-13T00:18:03;100818.38;;;6.54;71.40
68137;BME280;54939;50.826;9.030;2023-02-13T00:18:35;100813.09;;;6.54;71.42
68137;BME280;54939;50.826;9.030;2023-02-13T00:19:05;100810.44;;;6.54;71.26
68137;BME280;54939;50.826;9.030;2023-02-13T00:19:35;100810.50;;;6.53;71.01
68137;BME280;54939;50.826;9.030;2023-02-13T00:20:06;100809.56;;;6.54;71.07
68137;BME280;54939;50.826;9.030;2023-02-13T00:20:36;100819.31;;;6.53;71.02
68137;BME280;54939;50.826;9.030;2023-02-13T00:21:07;100806.91;;;6.54;71.17
68137;BME280;54939;50.826;9.030;2023-02-13T00:21:38;100814.94;;;6.52;71.00
68137;BME280;54939;50.826;9.030;2023-02-13T00:22:08;100814.94;;;6.52;71.29
68137;BME280;54939;50.826;9.030;2023-02-13T00:22:38;100813.16;;;6.53;71.03
68137;BME280;54939;50.826;9.030;2023-02-13T00:23:09;100808.78;;;6.52;70.90
68137;BME280;54939;50.826;9.030;2023-02-13T00:23:39;100814.94;;;6.52;71.02
68137;BME280;54939;50.826;9.030;2023-02-13T00:24:09;100815.81;;;6.53;71.19
68137;BME280;54939;50.826;9.030;2023-02-13T00:24:39;100815.81;;;6.53;71.12
68137;BME280;54939;50.826;9.030;2023-02-13T00:25:09;100816.66;;;6.53;71.08
68137;BME280;54939;50.826;9.030;2023-02-13T00:25:40;100814.94;;;6.52;70.92
68137;BME280;54939;50.826;9.030;2023-02-13T00:26:11;100817.59;;;6.52;71.18
68137;BME280;54939;50.826;9.030;2023-02-13T00:26:41;100819.31;;;6.53;71.12
68137;BME280;54939;50.826;9.030;2023-02-13T00:27:11;100816.66;;;6.53;71.35
68137;BME280;54939;50.826;9.030;2023-02-13T00:27:41;100818.47;;;6.53;71.28
68137;BME280;54939;50.826;9.030;2023-02-13T00:28:12;100816.66;;;6.53;71.08
68137;BME280;54939;50.826;9.030;2023-02-13T00:28:42;100818.47;;;6.53;70.97
68137;BME280;54939;50.826;9.030;2023-02-13T00:29:12;100814.94;;;6.52;70.72
68137;BME280;54939;50.826;9.030;2023-02-13T00:29:42;100816.66;;;6.53;71.14
68137;BME280;54939;50.826;9.030;2023-02-13T00:30:13;100819.31;;;6.53;71.34
68137;BME280;54939;50.826;9.030;2023-02-13T00:30:43;100817.53;;;6.54;71.28
68137;BME280;54939;50.826;9.030;2023-02-13T00:31:14;100818.38;;;6.54;71.32
68137;BME280;54939;50.826;9.030;2023-02-13T00:31:44;100818.38;;;6.54;71.44
68137;BME280;54939;50.826;9.030;2023-02-13T00:32:15;100815.75;;;6.54;70.87
68137;BME280;54939;50.826;9.030;2023-02-13T00:32:45;100816.59;;;6.55;71.06
68137;BME280;54939;50.826;9.030;2023-02-13T00:33:15;100821.03;;;6.54;71.42
68137;BME280;54939;50.826;9.030;2023-02-13T00:33:45;100812.22;;;6.54;71.09
68137;BME280;54939;50.826;9.030;2023-02-13T00:34:15;100814.88;;;6.54;70.72
68137;BME280;54939;50.826;9.030;2023-02-13T00:34:46;100815.75;;;6.54;71.11
68137;BME280;54939;50.826;9.030;2023-02-13T00:35:16;100808.63;;;6.55;71.05
68137;BME280;54939;50.826;9.030;2023-02-13T00:35:46;100820.13;;;6.55;71.34
68137;BME280;54939;50.826;9.030;2023-02-13T00:36:17;100805.13;;;6.54;71.15
68137;BME280;54939;50.826;9.030;2023-02-13T00:36:47;100814.81;;;6.55;71.25
68137;BME280;54939;50.826;9.030;2023-02-13T00:37:18;100804.19;;;6.55;71.38
68137;BME280;54939;50.826;9.030;2023-02-13T00:37:48;100801.59;;;6.54;71.12
68137;BME280;54939;50.826;9.030;2023-02-13T00:38:18;100811.28;;;6.55;71.29
68137;BME280;54939;50.826;9.030;2023-02-13T00:38:48;100805.06;;;6.56;71.08
68137;BME280;54939;50.826;9.030;2023-02-13T00:39:18;100810.34;;;6.56;71.46
68137;BME280;54939;50.826;9.030;2023-02-13T00:39:48;100800.69;;;6.55;71.21
68137;BME280;54939;50.826;9.030;2023-02-13T00:40:19;100801.53;;;6.55;71.11
68137;BME280;54939;50.826;9.030;2023-02-13T00:40:49;100799.81;;;6.54;71.10
68137;BME280;54939;50.826;9.030;2023-02-13T00:41:19;100812.22;;;6.54;70.75
68137;BME280;54939;50.826;9.030;2023-02-13T00:41:50;100813.16;;;6.53;70.88
68137;BME280;54939;50.826;9.030;2023-02-13T00:42:20;100809.63;;;6.52;71.12
68137;BME280;54939;50.826;9.030;2023-02-13T00:42:53;100806.06;;;6.53;71.27
68137;BME280;54939;50.826;9.030;2023-02-13T00:43:23;100808.72;;;6.53;71.02
68137;BME280;54939;50.826;9.030;2023-02-13T00:43:53;100808.72;;;6.53;70.97
68137;BME280;54939;50.826;9.030;2023-02-13T00:44:23;100811.34;;;6.53;71.13
68137;BME280;54939;50.826;9.030;2023-02-13T00:44:53;100817.53;;;6.54;71.07
68137;BME280;54939;50.826;9.030;2023-02-13T00:45:24;100811.34;;;6.53;71.06
68137;BME280;54939;50.826;9.030;2023-02-13T00:45:54;100806.91;;;6.54;71.24
68137;BME280;54939;50.826;9.030;2023-02-13T00:46:24;100801.59;;;6.54;71.19
68137;BME280;54939;50.826;9.030;2023-02-13T00:46:54;100806.06;;;6.53;70.83
68137;BME280;54939;50.826;9.030;2023-02-13T00:47:25;100803.41;;;6.53;71.02
68137;BME280;54939;50.826;9.030;2023-02-13T00:47:55;100801.69;;;6.52;71.00
68137;BME280;54939;50.826;9.030;2023-02-13T00:48:26;100806.06;;;6.53;71.50
68137;BME280;54939;50.826;9.030;2023-02-13T00:48:57;100801.59;;;6.54;71.10
68137;BME280;54939;50.826;9.030;2023-02-13T00:49:27;100805.13;;;6.54;70.85
68137;BME280;54939;50.826;9.030;2023-02-13T00:49:57;100806.91;;;6.54;71.10
68137;BME280;54939;50.826;9.030;2023-02-13T00:50:27;100807.78;;;6.54;71.09
68137;BME280;54939;50.826;9.030;2023-02-13T00:50:58;100802.47;;;6.54;71.13
68137;BME280;54939;50.826;9.030;2023-02-13T00:51:28;100805.97;;;6.55;70.95
68137;BME280;54939;50.826;9.030;2023-02-13T00:51:58;100801.59;;;6.54;71.06
68137;BME280;54939;50.826;9.030;2023-02-13T00:52:28;100807.78;;;6.54;71.04
68137;BME280;54939;50.826;9.030;2023-02-13T00:52:58;100810.44;;;6.54;70.74
68137;BME280;54939;50.826;9.030;2023-02-13T00:53:29;100811.28;;;6.55;71.40
68137;BME280;54939;50.826;9.030;2023-02-13T00:53:59;100800.69;;;6.55;71.17
68137;BME280;54939;50.826;9.030;2023-02-13T00:54:30;100805.97;;;6.55;71.15
68137;BME280;54939;50.826;9.030;2023-02-13T00:55:00;100811.22;;;6.56;71.28
68137;BME280;54939;50.826;9.030;2023-02-13T00:55:30;100812.16;;;6.55;71.32
68137;BME280;54939;50.826;9.030;2023-02-13T00:56:00;100813.88;;;6.56;71.09
68137;BME280;54939;50.826;9.030;2023-02-13T00:56:31;100811.28;;;6.55;71.19
68137;BME280;54939;50.826;9.030;2023-02-13T00:57:01;100814.81;;;6.55;71.21
68137;BME280;54939;50.826;9.030;2023-02-13T00:57:32;100803.34;;;6.55;71.01
68137;BME280;54939;50.826;9.030;2023-02-13T00:58:02;100807.78;;;6.54;70.81
68137;BME280;54939;50.826;9.030;2023-02-13T00:58:32;100813.09;;;6.54;71.13
68137;BME280;54939;50.826;9.030;2023-02-13T00:59:02;100808.63;;;6.55;71.03
68137;BME280;54939;50.826;9.030;2023-02-13T00:59:32;100808.72;;;6.53;71.10
68137;BME280;54939;50.826;9.030;2023-02-13T01:00:03;100810.44;;;6.54;70.80
68137;BME280;54939;50.826;9.030;2023-02-13T01:00:33;100807.78;;;6.54;71.13
68137;BME280;54939;50.826;9.030;2023-02-13T01:01:03;100813.00;;;6.56;71.18
68137;BME280;54939;50.826;9.030;2023-02-13T01:01:34;100804.19;;;6.55;70.95
68137;BME280;54939;50.826;9.030;2023-02-13T01:02:04;100805.97;;;6.55;70.70
68137;BME280;54939;50.826;9.030;2023-02-13T01:02:34;100808.63;;;6.55;71.17
68137;BME280;54939;50.826;9.030;2023-02-13T01:03:05;100809.56;;;6.54;71.04
68137;BME280;54939;50.826;9.030;2023-02-13T01:03:35;100801.59;;;6.54;71.13
68137;BME280;54939;50.826;9.030;2023-02-13T01:04:05;100807.78;;;6.54;71.13
68137;BME280;54939;50.826;9.030;2023-02-13T01:04:35;100802.47;;;6.54;71.15
68137;BME280;54939;50.826;9.030;2023-02-13T01:05:06;100805.13;;;6.54;71.27
68137;BME280;54939;50.826;9.030;2023-02-13T01:05:36;100811.28;;;6.55;71.01
68137;BME280;54939;50.826;9.030;2023-02-13T01:06:06;100806.84;;;6.55;70.93
68137;BME280;54939;50.826;9.030;2023-02-13T01:06:37;100806.06;;;6.53;70.79
68137;BME280;54939;50.826;9.030;2023-02-13T01:07:07;100806.91;;;6.54;71.02
68137;BME280;54939;50.826;9.030;2023-02-13T01:07:37;100807.78;;;6.54;71.16
68137;BME280;54939;50.826;9.030;2023-02-13T01:08:08;100805.13;;;6.54;71.09
68137;BME280;54939;50.826;9.030;2023-02-13T01:08:39;100812.22;;;6.54;71.05
68137;BME280;54939;50.826;9.030;2023-02-13T01:09:09;100814.00;;;6.53;71.12
68137;BME280;54939;50.826;9.030;2023-02-13T01:09:39;100809.56;;;6.54;71.18
68137;BME280;54939;50.826;9.030;2023-02-13T01:10:10;100809.56;;;6.54;71.09
68137;BME280;54939;50.826;9.030;2023-02-13T01:10:40;100802.47;;;6.54;71.14
68137;BME280;54939;50.826;9.030;2023-02-13T01:11:10;100809.50;;;6.55;70.94
68137;BME280;54939;50.826;9.030;2023-02-13T01:11:41;100809.56;;;6.54;71.22
68137;BME280;54939;50.826;9.030;2023-02-13T01:12:11;100805.13;;;6.54;71.13
68137;BME280;54939;50.826;9.030;2023-02-13T01:12:41;100804.19;;;6.55;70.91
68137;BME280;54939;50.826;9.030;2023-02-13T01:13:12;100805.97;;;6.55;70.94
68137;BME280;54939;50.826;9.030;2023-02-13T01:13:42;100811.28;;;6.55;71.06
68137;BME280;54939;50.826;9.030;2023-02-13T01:14:12;100807.78;;;6.54;70.59
68137;BME280;54939;50.826;9.030;2023-02-13T01:14:42;100806.91;;;6.54;71.02
68137;BME280;54939;50.826;9.030;2023-02-13T01:15:13;100808.63;;;6.55;71.08
68137;BME280;54939;50.826;9.030;2023-02-13T01:15:43;100806.84;;;6.55;70.93
68137;BME280;54939;50.826;9.030;2023-02-13T01:16:13;100802.47;;;6.54;70.98
68137;BME280;54939;50.826;9.030;2023-02-13T01:16:46;100798.94;;;6.54;71.36
68137;BME280;54939;50.826;9.030;2023-02-13T01:17:16;100809.50;;;6.55;71.16
68137;BME280;54939;50.826;9.030;2023-02-13T01:17:47;100811.28;;;6.55;71.30
68137;BME280;54939;50.826;9.030;2023-02-13T01:18:17;100802.47;;;6.54;71.26
68137;BME280;54939;50.826;9.030;2023-02-13T01:18:48;100802.41;;;6.56;70.97
68137;BME280;54939;50.826;9.030;2023-02-13T01:19:18;100808.63;;;6.55;71.16
68137;BME280;54939;50.826;9.030;2023-02-13T01:19:48;100798.88;;;6.55;71.00
68137;BME280;54939;50.826;9.030;2023-02-13T01:20:18;100797.16;;;6.54;71.10
68137;BME280;54939;50.826;9.030;2023-02-13T01:20:56;100802.41;;;6.56;70.90
68137;BME280;54939;50.826;9.030;2023-02-13T01:21:27;100798.88;;;6.55;71.01
68137;BME280;54939;50.826;9.030;2023-02-13T01:21:57;100797.16;;;6.54;70.82
68137;BME280;54939;50.826;9.030;2023-02-13T01:22:27;100798.88;;;6.55;70.89
68137;BME280;54939;50.826;9.030;2023-02-13T01:22:57;100801.53;;;6.55;70.95
68137;BME280;54939;50.826;9.030;2023-02-13T01:23:35;100798.94;;;6.54;70.87
68137;BME280;54939;50.826;9.030;2023-02-13T01:24:06;100805.97;;;6.55;71.05
68137;BME280;54939;50.826;9.030;2023-02-13T01:24:36;100800.59;;;6.56;70.89
68137;BME280;54939;50.826;9.030;2023-02-13T01:25:06;100797.09;;;6.56;71.17
68137;BME280;54939;50.826;9.030;2023-02-13T01:25:38;100799.75;;;6.56;71.02
68137;BME280;54939;50.826;9.030;2023-02-13T01:26:09;100801.47;;;6.57;71.06
68137;BME280;54939;50.826;9.030;2023-02-13T01:26:40;100800.59;;;6.56;70.71
68137;BME280;54939;50.826;9.030;2023-02-13T01:27:10;100792.78;;;6.53;71.18
68137;BME280;54939;50.826;9.030;2023-02-13T01:27:40;100797.09;;;6.56;70.76
68137;BME280;54939;50.826;9.030;2023-02-13T01:28:10;100795.38;;;6.55;71.09
68137;BME280;54939;50.826;9.030;2023-02-13T01:28:40;100795.31;;;6.56;71.39
68137;BME280;54939;50.826;9.030;2023-02-13T01:29:11;100796.22;;;6.55;70.49
68137;BME280;54939;50.826;9.030;2023-02-13T01:29:41;100798.88;;;6.55;70.82
68137;BME280;54939;50.826;9.030;2023-02-13T01:30:12;100799.75;;;6.56;71.04
68137;BME280;54939;50.826;9.030;2023-02-13T01:30:43;100804.25;;;6.54;70.53
68137;BME280;54939;50.826;9.030;2023-02-13T01:31:13;100802.47;;;6.54;71.02
68137;BME280;54939;50.826;9.030;2023-02-13T01:31:43;100802.47;;;6.54;71.18
68137;BME280;54939;50.826;9.030;2023-02-13T01:32:13;100804.31;;;6.52;70.70
68137;BME280;54939;50.826;9.030;2023-02-13T01:32:44;100797.16;;;6.54;70.97
68137;BME280;54939;50.826;9.030;2023-02-13T01:33:14;100804.25;;;6.54;71.14
68137;BME280;54939;50.826;9.030;2023-02-13T01:33:45;100797.16;;;6.54;71.12
68137;BME280;54939;50.826;9.030;2023-02-13T01:34:15;100791.00;;;6.54;71.04
68137;BME280;54939;50.826;9.030;2023-02-13T01:34:45;100803.34;;;6.55;71.02
68137;BME280;54939;50.826;9.030;2023-02-13T01:35:15;100798.03;;;6.55;71.02
68137;BME280;54939;50.826;9.030;2023-02-13T01:35:47;100801.53;;;6.55;71.01
68137;BME280;54939;50.826;9.030;2023-02-13T01:36:17;100800.69;;;6.55;70.95
68137;BME280;54939;50.826;9.030;2023-02-13T01:36:47;100796.22;;;6.55;70.50
68137;BME280;54939;50.826;9.030;2023-02-13T01:37:17;100793.56;;;6.55;70.83
68137;BME280;54939;50.826;9.030;2023-02-13T01:37:48;100796.22;;;6.55;70.94
68137;BME280;54939;50.826;9.030;2023-02-13T01:38:18;100800.69;;;6.55;70.92
68137;BME280;54939;50.826;9.030;2023-02-13T01:38:51;100803.34;;;6.55;70.78
68137;BME280;54939;50.826;9.030;2023-02-13T01:39:21;100800.69;;;6.55;71.05
68137;BME280;54939;50.826;9.030;2023-02-13T01:39:51;100797.09;;;6.56;70.76
68137;BME280;54939;50.826;9.030;2023-02-13T01:40:23;100794.44;;;6.56;70.58
68137;BME280;54939;50.826;9.030;2023-02-13T01:40:53;100795.31;;;6.56;70.97
68137;BME280;54939;50.826;9.030;2023-02-13T01:41:24;100799.63;;;6.57;71.07
68137;BME280;54939;50.826;9.030;2023-02-13T01:41:54;100802.28;;;6.57;71.05
68137;BME280;54939;50.826;9.030;2023-02-13T01:42:26;100790.84;;;6.57;71.07
68137;BME280;54939;50.826;9.030;2023-02-13T01:42:57;100793.41;;;6.58;70.96
68137;BME280;54939;50.826;9.030;2023-02-13T01:43:43;100793.50;;;6.57;71.17
68137;BME280;54939;50.826;9.030;2023-02-13T01:45:23;100793.50;;;6.57;71.18
68137;BME280;54939;50.826;9.030;2023-02-13T01:45:54;100783.81;;;6.56;70.79
68137;BME280;54939;50.826;9.030;2023-02-13T01:46:27;100786.47;;;6.56;70.81
68137;BME280;54939;50.826;9.030;2023-02-13T01:46:58;100790.00;;;6.56;71.40
68137;BME280;54939;50.826;9.030;2023-02-13T01:47:37;100790.00;;;6.56;71.04
68137;BME280;54939;50.826;9.030;2023-02-13T01:48:12;100787.34;;;6.56;70.91
68137;BME280;54939;50.826;9.030;2023-02-13T01:48:44;100784.69;;;6.56;70.71
68137;BME280;54939;50.826;9.030;2023-02-13T01:49:17;100783.81;;;6.56;71.04
68137;BME280;54939;50.826;9.030;2023-02-13T01:49:49;100790.00;;;6.56;71.28
68137;BME280;54939;50.826;9.030;2023-02-13T01:51:00;100786.47;;;6.56;70.88
68137;BME280;54939;50.826;9.030;2023-02-13T01:51:32;100790.91;;;6.55;71.07
68137;BME280;54939;50.826;9.030;2023-02-13T01:52:03;100790.84;;;6.57;71.15
68137;BME280;54939;50.826;9.030;2023-02-13T01:52:34;100792.66;;;6.56;71.02
68137;BME280;54939;50.826;9.030;2023-02-13T01:53:06;100783.81;;;6.56;70.97
68137;BME280;54939;50.826;9.030;2023-02-13T01:53:42;100782.03;;;6.56;71.00
68137;BME280;54939;50.826;9.030;2023-02-13T01:54:15;100789.03;;;6.57;71.14
68137;BME280;54939;50.826;9.030;2023-02-13T01:54:46;100785.53;;;6.57;70.92
68137;BME280;54939;50.826;9.030;2023-02-13T01:55:17;100782.78;;;6.58;70.86
68137;BME280;54939;50.826;9.030;2023-02-13T01:55:49;100780.22;;;6.57;70.92
68137;BME280;54939;50.826;9.030;2023-02-13T01:56:25;100784.56;;;6.58;70.81
68137;BME280;54939;50.826;9.030;2023-02-13T01:56:58;100787.34;;;6.56;70.79
68137;BME280;54939;50.826;9.030;2023-02-13T01:57:29;100784.69;;;6.56;70.81
68137;BME280;54939;50.826;9.030;2023-02-13T01:58:03;100782.97;;;6.55;71.10
68137;BME280;54939;50.826;9.030;2023-02-13T01:58:36;100777.66;;;6.55;70.83
68137;BME280;54939;50.826;9.030;2023-02-13T01:59:09;100780.22;;;6.57;70.97
68137;BME280;54939;50.826;9.030;2023-02-13T01:59:42;100785.53;;;6.57;71.00
68137;BME280;54939;50.826;9.030;2023-02-13T02:00:15;100782.88;;;6.57;71.10
68137;BME280;54939;50.826;9.030;2023-02-13T02:00:46;100778.41;;;6.57;71.07
68137;BME280;54939;50.826;9.030;2023-02-13T02:01:19;100782.03;;;6.56;70.98
68137;BME280;54939;50.826;9.030;2023-02-13T02:01:51;100782.88;;;6.57;71.12
68137;BME280;54939;50.826;9.030;2023-02-13T02:02:22;100779.38;;;6.56;70.96
68137;BME280;54939;50.826;9.030;2023-02-13T02:03:03;100780.22;;;6.57;71.08
68137;BME280;54939;50.826;9.030;2023-02-13T02:04:15;100778.50;;;6.56;70.75
68137;BME280;54939;50.826;9.030;2023-02-13T02:04:46;100779.38;;;6.56;71.21
68137;BME280;54939;50.826;9.030;2023-02-13T02:05:17;100776.72;;;6.56;70.88
68137;BME280;54939;50.826;9.030;2023-02-13T02:05:48;100774.06;;;6.56;70.93
68137;BME280;54939;50.826;9.030;2023-02-13T02:06:22;100775.84;;;6.56;70.97
68137;BME280;54939;50.826;9.030;2023-02-13T02:07:01;100777.47;;;6.58;70.63
68137;BME280;54939;50.826;9.030;2023-02-13T02:07:32;100778.41;;;6.57;70.49
68137;BME280;54939;50.826;9.030;2023-02-13T02:08:03;100777.47;;;6.58;71.06
68137;BME280;54939;50.826;9.030;2023-02-13T02:08:36;100781.06;;;6.57;70.77
68137;BME280;54939;50.826;9.030;2023-02-13T02:09:12;100777.59;;;6.57;70.79
68137;BME280;54939;50.826;9.030;2023-02-13T02:09:43;100775.84;;;6.56;70.53
68137;BME280;54939;50.826;9.030;2023-02-13T02:10:15;100777.59;;;6.57;71.18
68137;BME280;54939;50.826;9.030;2023-02-13T02:10:45;100769.63;;;6.57;70.86
68137;BME280;54939;50.826;9.030;2023-02-13T02:11:34;100776.72;;;6.56;71.31
68137;BME280;54939;50.826;9.030;2023-02-13T02:12:07;100774.94;;;6.57;71.01
68137;BME280;54939;50.826;9.030;2023-02-13T02:12:49;100776.72;;;6.56;71.30
68137;BME280;54939;50.826;9.030;2023-02-13T02:13:22;100775.75;;;6.57;70.94
68137;BME280;54939;50.826;9.030;2023-02-13T02:13:52;100772.28;;;6.57;71.16
68137;BME280;54939;50.826;9.030;2023-02-13T02:14:23;100766.97;;;6.57;70.86
68137;BME280;54939;50.826;9.030;2023-02-13T02:14:55;100772.28;;;6.57;70.85
68137;BME280;54939;50.826;9.030;2023-02-13T02:15:27;100776.63;;;6.58;70.88
68137;BME280;54939;50.826;9.030;2023-02-13T02:15:57;100777.47;;;6.58;70.79
68137;BME280;54939;50.826;9.030;2023-02-13T02:16:28;100773.09;;;6.57;70.88
68137;BME280;54939;50.826;9.030;2023-02-13T02:16:58;100778.34;;;6.59;70.76
68137;BME280;54939;50.826;9.030;2023-02-13T02:17:28;100774.81;;;6.58;70.94
68137;BME280;54939;50.826;9.030;2023-02-13T02:17:59;100773.91;;;6.59;70.90
68137;BME280;54939;50.826;9.030;2023-02-13T02:18:29;100775.69;;;6.59;70.82
68137;BME280;54939;50.826;9.030;2023-02-13T02:19:03;100777.47;;;6.58;70.47
68137;BME280;54939;50.826;9.030;2023-02-13T02:19:38;100780.13;;;6.58;70.87
68137;BME280;54939;50.826;9.030;2023-02-13T02:21:48;100777.59;;;6.57;70.81
68137;BME280;54939;50.826;9.030;2023-02-13T02:22:59;100785.44;;;6.58;70.78
68137;BME280;54939;50.826;9.030;2023-02-13T02:24:46;100780.22;;;6.57;70.85
68137;BME280;54939;50.826;9.030;2023-02-13T02:32:54;100781.91;;;6.58;70.89
68137;BME280;54939;50.826;9.030;2023-02-13T02:33:28;100781.00;;;6.59;71.13
68137;BME280;54939;50.826;9.030;2023-02-13T02:34:40;100780.22;;;6.57;70.79
68137;BME280;54939;50.826;9.030;2023-02-13T02:35:52;100783.66;;;6.59;71.10
68137;BME280;54939;50.826;9.030;2023-02-13T02:36:28;100784.50;;;6.59;70.87
68137;BME280;54939;50.826;9.030;2023-02-13T02:38:13;100774.81;;;6.58;70.90
68137;BME280;54939;50.826;9.030;2023-02-13T02:38:53;100782.78;;;6.58;70.23
68137;BME280;54939;50.826;9.030;2023-02-13T02:39:32;100781.84;;;6.59;70.72
68137;BME280;54939;50.826;9.030;2023-02-13T02:42:17;100776.53;;;6.59;70.67
68137;BME280;54939;50.826;9.030;2023-02-13T02:44:14;100778.34;;;6.59;70.71
68137;BME280;54939;50.826;9.030;2023-02-13T02:46:10;100783.66;;;6.59;70.63
68137;BME280;54939;50.826;9.030;2023-02-13T02:47:07;100773.91;;;6.59;70.86
68137;BME280;54939;50.826;9.030;2023-02-13T02:47:59;100776.53;;;6.59;70.99
68137;BME280;54939;50.826;9.030;2023-02-13T02:51:47;100772.16;;;6.58;70.71
68137;BME280;54939;50.826;9.030;2023-02-13T02:52:19;100770.44;;;6.57;70.51
68137;BME280;54939;50.826;9.030;2023-02-13T02:52:56;100773.03;;;6.59;70.93
68137;BME280;54939;50.826;9.030;2023-02-13T02:54:34;100769.50;;;6.58;70.75
68137;BME280;54939;50.826;9.030;2023-02-13T02:55:31;100767.72;;;6.59;70.95
68137;BME280;54939;50.826;9.030;2023-02-13T02:56:36;100776.53;;;6.59;71.11
68137;BME280;54939;50.826;9.030;2023-02-13T02:57:11;100773.03;;;6.59;70.91
68137;BME280;54939;50.826;9.030;2023-02-13T02:58:07;100772.09;;;6.60;71.11
68137;BME280;54939;50.826;9.030;2023-02-13T02:58:56;100778.41;;;6.57;70.72
68137;BME280;54939;50.826;9.030;2023-02-13T02:59:48;100776.53;;;6.59;71.04
68137;BME280;54939;50.826;9.030;2023-02-13T03:00:41;100777.41;;;6.60;70.78
68137;BME280;54939;50.826;9.030;2023-02-13T03:01:31;100774.75;;;6.60;70.98
68137;BME280;54939;50.826;9.030;2023-02-13T03:02:20;100780.13;;;6.58;71.07
68137;BME280;54939;50.826;9.030;2023-02-13T03:03:16;100776.53;;;6.59;70.95
68137;BME280;54939;50.826;9.030;2023-02-13T03:04:10;100781.84;;;6.59;71.18
68137;BME280;54939;50.826;9.030;2023-02-13T03:05:03;100774.75;;;6.60;70.89
68137;BME280;54939;50.826;9.030;2023-02-13T03:05:52;100774.81;;;6.58;70.73
68137;BME280;54939;50.826;9.030;2023-02-13T03:06:51;100777.47;;;6.58;70.53
68137;BME280;54939;50.826;9.030;2023-02-13T03:07:23;100767.72;;;6.59;70.60
68137;BME280;54939;50.826;9.030;2023-02-13T03:07:54;100772.16;;;6.58;71.01
68137;BME280;54939;50.826;9.030;2023-02-13T03:08:24;100775.69;;;6.59;70.90
68137;BME280;54939;50.826;9.030;2023-02-13T03:09:21;100773.91;;;6.59;70.55
68137;BME280;54939;50.826;9.030;2023-02-13T03:10:33;100772.16;;;6.58;70.81
68137;BME280;54939;50.826;9.030;2023-02-13T03:11:20;100775.75;;;6.57;70.99
68137;BME280;54939;50.826;9.030;2023-02-13T03:12:09;100774.81;;;6.58;70.59
68137;BME280;54939;50.826;9.030;2023-02-13T03:13:02;100777.47;;;6.58;71.05
68137;BME280;54939;50.826;9.030;2023-02-13T03:13:49;100770.31;;;6.60;70.78
68137;BME280;54939;50.826;9.030;2023-02-13T03:14:20;100781.00;;;6.59;70.91
68137;BME280;54939;50.826;9.030;2023-02-13T03:14:51;100777.47;;;6.58;71.02
68137;BME280;54939;50.826;9.030;2023-02-13T03:15:22;100780.13;;;6.58;70.58
68137;BME280;54939;50.826;9.030;2023-02-13T03:15:56;100777.47;;;6.58;71.22
68137;BME280;54939;50.826;9.030;2023-02-13T03:16:46;100777.47;;;6.58;70.67
68137;BME280;54939;50.826;9.030;2023-02-13T03:17:36;100777.47;;;6.58;70.97
68137;BME280;54939;50.826;9.030;2023-02-13T03:18:25;100780.22;;;6.57;70.44
68137;BME280;54939;50.826;9.030;2023-02-13T03:19:32;100779.38;;;6.56;70.70
68137;BME280;54939;50.826;9.030;2023-02-13T03:20:30;100779.38;;;6.56;70.84
68137;BME280;54939;50.826;9.030;2023-02-13T03:21:34;100781.16;;;6.56;70.96